Time;durP1;ratioP1;P1;durP2;ratioP2;P2;SDS_P1;SDS_P2;PMS_P1;PMS_P2;Temp;Humidity;BMP_temperature;BMP_pressure;BME280_temperature;BME280_humidity;BME280_pressure;Samples;Min_cycle;Max_cycle;Signal;HPM_P1;HPM_P2
2021/03/29 00:00:26;;;;;;;1.58;0.60;;;;;;;;;;4965849;28;20125;-56
2021/03/29 00:02:52;;;;;;;2.20;0.57;;;;;;;;;;4966628;28;20058;-57
2021/03/29 00:05:18;;;;;;;5.03;0.73;;;;;;;;;;4962061;28;20066;-54
2021/03/29 00:07:45;;;;;;;2.13;0.50;;;;;;;;;;4965928;28;20042;-58
2021/03/29 00:10:12;;;;;;;2.85;0.57;;;;;;;;;;4964364;28;20121;-55
2021/03/29 00:12:40;;;;;;;1.73;0.50;;;;;;;;;;4965079;28;20035;-58
2021/03/29 00:15:09;;;;;;;1.60;0.50;;;;;;;;;;4965864;28;20486;-58
2021/03/29 00:17:35;;;;;;;2.13;0.60;;;;;;;;;;4964222;28;20138;-58
2021/03/29 00:20:06;;;;;;;1.58;0.57;;;;;;;;;;4965777;28;20047;-56
2021/03/29 00:22:32;;;;;;;4.05;0.65;;;;;;;;;;4964713;28;20061;-57
2021/03/29 00:24:57;;;;;;;2.03;0.47;;;;;;;;;;4965484;28;20027;-58
2021/03/29 00:27:23;;;;;;;1.95;0.50;;;;;;;;;;4964514;28;20050;-57
2021/03/29 00:29:49;;;;;;;2.15;0.50;;;;;;;;;;4966543;28;22129;-58
2021/03/29 00:32:16;;;;;;;3.45;0.60;;;;;;;;;;4964308;28;20043;-52
2021/03/29 00:34:43;;;;;;;2.45;0.55;;;;;;;;;;4963437;28;20046;-57
2021/03/29 00:37:09;;;;;;;4.40;0.70;;;;;;;;;;4964408;28;20081;-57
2021/03/29 00:39:36;;;;;;;3.00;0.70;;;;;;;;;;4965909;28;20777;-56
2021/03/29 00:42:02;;;;;;;2.47;0.50;;;;;;;;;;4965144;28;20089;-58
2021/03/29 00:44:28;;;;;;;3.05;0.82;;;;;;;;;;4965004;28;20483;-57
2021/03/29 00:46:54;;;;;;;4.03;0.90;;;;;;;;;;4964587;28;20065;-55
2021/03/29 00:49:20;;;;;;;2.90;0.70;;;;;;;;;;4965130;28;20141;-59
2021/03/29 00:51:46;;;;;;;3.67;0.60;;;;;;;;;;4963405;28;20096;-58
2021/03/29 00:54:12;;;;;;;3.40;0.50;;;;;;;;;;4971806;28;20043;-58
2021/03/29 00:56:42;;;;;;;7.40;0.80;;;;;;;;;;4962652;28;20054;-57
2021/03/29 00:59:08;;;;;;;3.17;0.90;;;;;;;;;;4965443;28;20084;-57
2021/03/29 01:01:39;;;;;;;1.20;0.40;;;;;;;;;;4964535;28;20035;-58
2021/03/29 01:04:05;;;;;;;2.40;0.50;;;;;;;;;;4964078;28;20050;-57
2021/03/29 01:06:33;;;;;;;2.88;0.55;;;;;;;;;;4962774;28;20041;-57
2021/03/29 01:09:05;;;;;;;3.58;0.75;;;;;;;;;;4968311;28;20486;-58
2021/03/29 01:11:33;;;;;;;2.53;0.70;;;;;;;;;;4966261;28;20042;-58
2021/03/29 01:14:03;;;;;;;1.25;0.40;;;;;;;;;;4966937;28;20039;-58
2021/03/29 01:16:30;;;;;;;5.20;0.70;;;;;;;;;;4964871;28;20031;-57
2021/03/29 01:18:58;;;;;;;1.88;0.60;;;;;;;;;;4963666;28;20066;-59
2021/03/29 01:21:52;;;;;;;3.78;0.65;;;;;;;;;;4962197;28;20449;-57
2021/03/29 01:24:26;;;;;;;1.73;0.50;;;;;;;;;;4965642;28;20066;-56
2021/03/29 01:26:52;;;;;;;1.30;0.50;;;;;;;;;;4962958;28;20039;-57
2021/03/29 01:29:18;;;;;;;1.63;0.50;;;;;;;;;;4962680;28;20551;-57
2021/03/29 01:31:45;;;;;;;2.40;0.70;;;;;;;;;;4963483;28;20043;-57
2021/03/29 01:34:13;;;;;;;2.28;0.50;;;;;;;;;;4978932;28;20656;-58
2021/03/29 01:36:40;;;;;;;3.92;0.60;;;;;;;;;;4964143;28;20057;-57
2021/03/29 01:39:06;;;;;;;1.15;0.40;;;;;;;;;;4963224;28;20051;-57
2021/03/29 01:41:32;;;;;;;3.70;0.40;;;;;;;;;;4964219;28;20041;-56
2021/03/29 01:43:59;;;;;;;1.60;0.40;;;;;;;;;;4964021;28;20133;-56
2021/03/29 01:46:25;;;;;;;2.75;0.60;;;;;;;;;;4963751;28;20682;-56
2021/03/29 01:48:51;;;;;;;3.72;0.57;;;;;;;;;;4964503;28;20042;-56
2021/03/29 01:51:17;;;;;;;3.42;0.43;;;;;;;;;;4962955;28;20648;-56
2021/03/29 01:53:44;;;;;;;1.95;0.60;;;;;;;;;;4964078;28;20039;-59
2021/03/29 01:56:10;;;;;;;3.08;0.60;;;;;;;;;;4962535;28;20307;-57
2021/03/29 01:58:36;;;;;;;2.20;0.60;;;;;;;;;;4993406;28;20047;-54
2021/03/29 02:01:04;;;;;;;3.85;0.50;;;;;;;;;;4963043;28;20031;-56
2021/03/29 02:03:30;;;;;;;2.35;0.50;;;;;;;;;;4962854;28;20150;-54
2021/03/29 02:06:00;;;;;;;1.77;0.50;;;;;;;;;;4961270;28;20943;-58
2021/03/29 02:08:26;;;;;;;1.65;0.50;;;;;;;;;;4964087;28;20086;-56
2021/03/29 02:10:52;;;;;;;1.75;0.60;;;;;;;;;;4963981;28;20606;-58
2021/03/29 02:13:23;;;;;;;1.13;0.40;;;;;;;;;;4963378;28;20046;-58
2021/03/29 02:15:55;;;;;;;5.03;0.80;;;;;;;;;;4961486;28;20464;-58
2021/03/29 02:18:20;;;;;;;4.47;0.60;;;;;;;;;;4962863;28;20043;-55
2021/03/29 02:20:47;;;;;;;3.83;0.60;;;;;;;;;;4965538;28;20106;-58
2021/03/29 02:23:17;;;;;;;2.88;0.70;;;;;;;;;;4964988;28;22050;-56
2021/03/29 02:25:44;;;;;;;5.35;0.80;;;;;;;;;;4964034;28;20163;-56
2021/03/29 02:28:11;;;;;;;4.80;1.20;;;;;;;;;;4995462;28;20071;-57
2021/03/29 02:30:37;;;;;;;1.92;0.60;;;;;;;;;;4964148;28;20757;-56
2021/03/29 02:33:06;;;;;;;2.15;0.60;;;;;;;;;;4960730;28;20050;-57
2021/03/29 02:35:33;;;;;;;1.65;0.50;;;;;;;;;;4963503;28;20527;-55
2021/03/29 02:37:59;;;;;;;1.05;0.40;;;;;;;;;;4964814;28;20556;-58
2021/03/29 02:40:26;;;;;;;4.03;0.60;;;;;;;;;;4960921;28;20129;-54
2021/03/29 02:42:53;;;;;;;1.05;0.40;;;;;;;;;;4963213;28;20054;-57
2021/03/29 02:45:20;;;;;;;1.63;0.40;;;;;;;;;;4962418;28;20065;-58
2021/03/29 02:47:46;;;;;;;2.60;0.50;;;;;;;;;;4962997;28;20050;-58
2021/03/29 02:50:16;;;;;;;1.27;0.50;;;;;;;;;;4962859;28;20359;-58
2021/03/29 02:52:43;;;;;;;1.42;0.55;;;;;;;;;;4965746;28;20200;-52
2021/03/29 02:55:14;;;;;;;2.00;0.55;;;;;;;;;;4963101;28;20034;-55
2021/03/29 02:57:43;;;;;;;2.03;0.47;;;;;;;;;;4963914;28;20045;-57
2021/03/29 03:00:19;;;;;;;3.63;0.70;;;;;;;;;;4962741;28;20464;-59
2021/03/29 03:02:45;;;;;;;2.55;0.57;;;;;;;;;;4962252;28;20057;-57
2021/03/29 03:05:15;;;;;;;1.63;0.50;;;;;;;;;;4962197;28;20111;-56
2021/03/29 03:07:41;;;;;;;6.30;0.68;;;;;;;;;;4962100;28;20146;-57
2021/03/29 03:10:18;;;;;;;2.38;0.80;;;;;;;;;;4963122;28;20151;-57
2021/03/29 03:12:45;;;;;;;1.38;0.55;;;;;;;;;;4962392;28;20042;-57
2021/03/29 03:15:31;;;;;;;1.80;0.65;;;;;;;;;;4962433;28;20070;-58
2021/03/29 03:17:58;;;;;;;2.10;0.68;;;;;;;;;;4964056;28;20534;-57
2021/03/29 03:20:24;;;;;;;2.17;0.60;;;;;;;;;;4963972;28;20098;-58
2021/03/29 03:22:51;;;;;;;1.92;0.60;;;;;;;;;;4963675;28;20056;-57
2021/03/29 03:25:21;;;;;;;3.15;0.82;;;;;;;;;;4962836;28;20031;-59
2021/03/29 03:27:46;;;;;;;1.92;0.68;;;;;;;;;;4962963;28;20081;-57
2021/03/29 03:30:26;;;;;;;1.95;0.60;;;;;;;;;;4961588;28;20042;-55
2021/03/29 03:32:52;;;;;;;2.03;0.57;;;;;;;;;;4964886;28;20543;-55
2021/03/29 03:35:19;;;;;;;6.97;0.68;;;;;;;;;;4961741;28;20053;-58
2021/03/29 03:37:48;;;;;;;1.40;0.60;;;;;;;;;;4961432;28;20046;-55
2021/03/29 03:40:14;;;;;;;5.45;1.00;;;;;;;;;;4963081;28;20053;-56
2021/03/29 03:42:42;;;;;;;2.00;0.80;;;;;;;;;;4962937;28;20066;-56
2021/03/29 03:45:09;;;;;;;2.47;0.80;;;;;;;;;;4961861;28;20109;-58
2021/03/29 03:47:36;;;;;;;3.08;0.80;;;;;;;;;;4962887;28;20137;-56
2021/03/29 03:50:02;;;;;;;14.55;1.20;;;;;;;;;;4962630;28;20035;-58
2021/03/29 03:52:28;;;;;;;7.97;1.42;;;;;;;;;;4962656;28;20496;-58
2021/03/29 03:54:55;;;;;;;3.22;0.85;;;;;;;;;;4963406;28;20108;-54
2021/03/29 03:57:22;;;;;;;2.70;0.98;;;;;;;;;;4960510;28;20054;-58
2021/03/29 03:59:48;;;;;;;2.92;1.02;;;;;;;;;;4963584;28;20050;-55
2021/03/29 04:02:14;;;;;;;3.05;0.90;;;;;;;;;;4953992;28;20077;-57
2021/03/29 04:04:40;;;;;;;6.20;1.77;;;;;;;;;;4960866;28;20031;-55
2021/03/29 04:07:06;;;;;;;6.85;0.90;;;;;;;;;;4961505;28;20043;-53
2021/03/29 04:12:17;;;;;;;3.78;1.35;;;;;;;;;;4954534;28;20511;-56
2021/03/29 04:14:43;;;;;;;3.63;1.30;;;;;;;;;;4962557;28;20134;-57
2021/03/29 04:17:09;;;;;;;12.38;2.20;;;;;;;;;;4963422;28;20110;-60
2021/03/29 04:19:35;;;;;;;3.78;1.50;;;;;;;;;;4960462;28;20397;-53
2021/03/29 04:22:01;;;;;;;5.50;1.20;;;;;;;;;;4962269;28;20081;-55
2021/03/29 04:24:27;;;;;;;3.22;1.30;;;;;;;;;;4963474;28;20576;-54
2021/03/29 04:26:53;;;;;;;5.50;1.20;;;;;;;;;;4964092;28;20122;-54
2021/03/29 04:29:19;;;;;;;3.00;1.20;;;;;;;;;;4965023;28;20525;-53
2021/03/29 04:31:45;;;;;;;16.10;2.13;;;;;;;;;;4964957;28;20460;-57
2021/03/29 04:34:11;;;;;;;4.18;1.27;;;;;;;;;;4982343;28;20043;-57
2021/03/29 04:36:37;;;;;;;4.00;1.27;;;;;;;;;;4965351;28;20045;-57
2021/03/29 04:39:05;;;;;;;6.25;1.40;;;;;;;;;;4967440;28;20545;-57
2021/03/29 04:41:31;;;;;;;3.00;1.00;;;;;;;;;;4966899;28;20042;-57
2021/03/29 04:43:57;;;;;;;5.20;1.48;;;;;;;;;;4966594;28;20508;-57
2021/03/29 04:46:23;;;;;;;63.17;5.43;;;;;;;;;;4966847;28;20035;-57
2021/03/29 04:48:49;;;;;;;4.30;1.38;;;;;;;;;;4967382;28;20117;-55
2021/03/29 04:51:15;;;;;;;2.88;0.82;;;;;;;;;;4968165;28;20042;-54
2021/03/29 04:53:41;;;;;;;3.42;1.23;;;;;;;;;;4966588;28;20038;-55
2021/03/29 04:56:07;;;;;;;3.97;1.10;;;;;;;;;;4967186;28;20055;-57
2021/03/29 04:58:33;;;;;;;4.20;1.50;;;;;;;;;;4965878;28;20137;-56
2021/03/29 05:01:08;;;;;;;2.92;1.10;;;;;;;;;;4963677;28;20126;-58
2021/03/29 05:03:34;;;;;;;3.67;0.82;;;;;;;;;;4967166;28;21032;-57
2021/03/29 05:06:00;;;;;;;2.83;1.10;;;;;;;;;;4966389;28;20049;-56
2021/03/29 05:08:25;;;;;;;5.47;1.08;;;;;;;;;;4968666;28;20039;-55
2021/03/29 05:10:51;;;;;;;4.63;1.30;;;;;;;;;;4967533;28;20660;-55
2021/03/29 05:13:17;;;;;;;3.80;1.52;;;;;;;;;;4966419;28;20143;-53
2021/03/29 05:15:43;;;;;;;3.72;1.23;;;;;;;;;;4968232;28;20047;-56
2021/03/29 05:18:09;;;;;;;3.13;0.88;;;;;;;;;;4968052;28;20057;-57
2021/03/29 05:20:35;;;;;;;4.72;1.52;;;;;;;;;;4966367;28;20045;-56
2021/03/29 05:23:01;;;;;;;3.42;1.23;;;;;;;;;;4967665;28;20047;-57
2021/03/29 05:25:27;;;;;;;3.22;1.40;;;;;;;;;;4966707;28;20704;-57
2021/03/29 05:27:54;;;;;;;5.38;1.40;;;;;;;;;;4966301;28;20043;-57
2021/03/29 05:30:20;;;;;;;4.13;1.58;;;;;;;;;;4967219;28;20038;-58
2021/03/29 05:32:46;;;;;;;6.05;1.63;;;;;;;;;;4966030;28;20043;-57
2021/03/29 05:35:12;;;;;;;4.28;1.38;;;;;;;;;;4965059;28;20431;-56
2021/03/29 05:37:38;;;;;;;3.40;1.48;;;;;;;;;;4967470;28;20042;-53
2021/03/29 05:40:04;;;;;;;4.50;1.13;;;;;;;;;;4965703;28;20598;-57
2021/03/29 05:42:31;;;;;;;3.40;1.52;;;;;;;;;;4964495;28;20058;-56
2021/03/29 05:45:05;;;;;;;5.97;2.15;;;;;;;;;;4966840;28;20043;-55
2021/03/29 05:47:31;;;;;;;4.32;1.52;;;;;;;;;;4963180;28;20081;-54
2021/03/29 05:50:01;;;;;;;4.35;1.63;;;;;;;;;;4958539;28;20046;-57
2021/03/29 05:52:28;;;;;;;5.65;1.88;;;;;;;;;;4980095;28;20035;-56
2021/03/29 05:54:55;;;;;;;13.25;2.05;;;;;;;;;;4963165;28;20550;-57
2021/03/29 05:57:21;;;;;;;3.33;1.50;;;;;;;;;;4964113;28;20070;-57
2021/03/29 05:59:47;;;;;;;3.22;1.27;;;;;;;;;;4965751;28;20043;-56
2021/03/29 06:02:26;;;;;;;6.45;1.60;;;;;;;;;;4964061;28;20490;-57
2021/03/29 06:04:52;;;;;;;3.83;1.42;;;;;;;;;;4961427;28;20047;-55
2021/03/29 06:07:29;;;;;;;5.05;1.80;;;;;;;;;;4958170;28;20031;-56
2021/03/29 06:09:56;;;;;;;3.53;1.20;;;;;;;;;;4965413;28;20051;-54
2021/03/29 06:12:23;;;;;;;8.07;1.23;;;;;;;;;;4963174;28;20053;-57
2021/03/29 06:14:59;;;;;;;3.17;1.00;;;;;;;;;;4964146;28;20035;-58
2021/03/29 06:17:26;;;;;;;3.38;1.45;;;;;;;;;;4964526;28;20042;-58
2021/03/29 06:19:53;;;;;;;3.15;1.30;;;;;;;;;;4997004;28;20078;-59
2021/03/29 06:22:25;;;;;;;2.75;1.08;;;;;;;;;;4962468;28;20039;-56
2021/03/29 06:25:08;;;;;;;3.83;1.48;;;;;;;;;;4965097;28;20114;-56
2021/03/29 06:27:37;;;;;;;3.42;0.95;;;;;;;;;;4963502;28;20120;-54
2021/03/29 06:30:22;;;;;;;2.85;0.93;;;;;;;;;;4964721;28;20399;-53
2021/03/29 06:33:06;;;;;;;2.85;1.13;;;;;;;;;;4963505;28;20050;-57
2021/03/29 06:35:35;;;;;;;3.20;1.05;;;;;;;;;;4962525;28;20067;-57
2021/03/29 06:38:33;;;;;;;3.08;0.88;;;;;;;;;;4965662;28;20137;-56
2021/03/29 06:41:01;;;;;;;13.60;1.60;;;;;;;;;;4962879;28;20039;-58
2021/03/29 06:43:26;;;;;;;3.80;1.25;;;;;;;;;;4963659;28;20062;-56
2021/03/29 06:45:57;;;;;;;4.05;1.20;;;;;;;;;;4979505;28;20030;-57
2021/03/29 06:48:24;;;;;;;3.50;1.23;;;;;;;;;;4953795;28;20096;-58
2021/03/29 06:51:02;;;;;;;5.72;1.35;;;;;;;;;;4965315;28;20039;-55
2021/03/29 06:53:28;;;;;;;2.60;0.90;;;;;;;;;;4962883;28;20042;-56
2021/03/29 06:55:57;;;;;;;2.35;0.82;;;;;;;;;;4963107;28;21977;-54
2021/03/29 06:58:26;;;;;;;2.65;0.80;;;;;;;;;;4962808;28;20042;-56
2021/03/29 07:00:57;;;;;;;2.05;0.70;;;;;;;;;;4964144;28;20035;-54
2021/03/29 07:03:23;;;;;;;3.60;1.00;;;;;;;;;;4963107;28;20138;-56
2021/03/29 07:05:50;;;;;;;3.13;0.90;;;;;;;;;;4963160;28;20070;-55
2021/03/29 07:08:17;;;;;;;2.58;1.00;;;;;;;;;;4962207;28;20068;-58
2021/03/29 07:10:43;;;;;;;3.35;1.00;;;;;;;;;;4961939;28;20069;-53
2021/03/29 07:13:09;;;;;;;4.20;1.20;;;;;;;;;;4962184;28;20137;-54
2021/03/29 07:15:41;;;;;;;2.25;0.80;;;;;;;;;;4962179;28;20054;-56
2021/03/29 07:18:10;;;;;;;5.03;0.90;;;;;;;;;;4964438;28;20043;-56
2021/03/29 07:20:36;;;;;;;3.47;1.00;;;;;;;;;;4962954;28;20030;-55
2021/03/29 07:23:02;;;;;;;3.67;0.60;;;;;;;;;;4964944;28;20113;-54
2021/03/29 07:25:35;;;;;;;6.65;0.82;;;;;;;;;;4964350;28;20110;-54
2021/03/29 07:28:01;;;;;;;9.52;0.95;;;;;;;;;;4963303;28;20082;-54
2021/03/29 07:30:44;;;;;;;2.65;0.85;;;;;;;;;;4963961;28;20031;-53
2021/03/29 07:33:11;;;;;;;2.25;0.77;;;;;;;;;;4961392;28;20537;-54
2021/03/29 07:35:51;;;;;;;1.63;0.60;;;;;;;;;;4960659;28;20739;-55
2021/03/29 07:38:26;;;;;;;9.38;1.25;;;;;;;;;;4962470;28;20046;-55
2021/03/29 07:40:52;;;;;;;2.15;0.68;;;;;;;;;;4962561;28;20058;-57
2021/03/29 07:43:19;;;;;;;4.63;0.85;;;;;;;;;;4962984;28;20137;-55
2021/03/29 07:45:48;;;;;;;2.00;0.73;;;;;;;;;;4961841;28;20046;-55
2021/03/29 07:48:14;;;;;;;8.18;0.95;;;;;;;;;;4962779;28;20125;-54
2021/03/29 07:50:40;;;;;;;3.50;0.77;;;;;;;;;;4962594;28;20496;-56
2021/03/29 07:53:07;;;;;;;2.60;0.95;;;;;;;;;;4962825;28;20035;-55
2021/03/29 07:55:36;;;;;;;2.22;0.90;;;;;;;;;;4960038;28;20157;-53
2021/03/29 07:58:09;;;;;;;2.60;0.77;;;;;;;;;;4965540;28;20042;-52
2021/03/29 08:00:35;;;;;;;2.55;0.82;;;;;;;;;;4967439;28;20035;-55
2021/03/29 08:03:20;;;;;;;2.25;0.85;;;;;;;;;;4967536;28;20057;-52
2021/03/29 08:05:47;;;;;;;3.72;1.10;;;;;;;;;;4963985;28;20042;-54
2021/03/29 08:08:22;;;;;;;2.90;0.90;;;;;;;;;;4990644;28;20047;-58
2021/03/29 08:11:00;;;;;;;4.53;1.02;;;;;;;;;;4967170;28;20514;-56
2021/03/29 08:13:35;;;;;;;2.70;0.82;;;;;;;;;;4967505;28;20047;-56
2021/03/29 08:16:03;;;;;;;1.98;0.60;;;;;;;;;;4967644;28;20056;-54
2021/03/29 08:18:29;;;;;;;3.30;0.95;;;;;;;;;;4995328;28;21963;-53
2021/03/29 08:20:54;;;;;;;4.43;1.17;;;;;;;;;;4965314;28;20352;-54
2021/03/29 08:23:30;;;;;;;2.50;0.90;;;;;;;;;;4967028;28;20061;-55
2021/03/29 08:26:06;;;;;;;2.10;0.77;;;;;;;;;;4979225;28;20058;-52
2021/03/29 08:28:50;;;;;;;2.20;0.57;;;;;;;;;;4964908;28;20038;-53
2021/03/29 08:31:34;;;;;;;4.20;0.88;;;;;;;;;;4965510;28;20039;-53
2021/03/29 08:34:00;;;;;;;2.40;0.75;;;;;;;;;;4962984;28;20066;-56
2021/03/29 08:36:26;;;;;;;4.53;1.05;;;;;;;;;;4965726;28;20050;-56
2021/03/29 08:38:52;;;;;;;3.55;0.80;;;;;;;;;;4967368;28;20816;-55
2021/03/29 08:41:20;;;;;;;2.75;0.98;;;;;;;;;;4966017;28;20038;-53
2021/03/29 08:43:46;;;;;;;2.25;0.70;;;;;;;;;;4966297;28;20101;-54
2021/03/29 08:46:12;;;;;;;1.75;0.57;;;;;;;;;;4995914;28;20035;-54
2021/03/29 08:48:38;;;;;;;3.03;0.90;;;;;;;;;;4965767;28;20134;-53
2021/03/29 08:51:04;;;;;;;12.95;0.90;;;;;;;;;;4967028;28;20039;-56
2021/03/29 08:53:30;;;;;;;7.63;0.60;;;;;;;;;;4963388;28;20055;-55
2021/03/29 08:55:56;;;;;;;4.93;0.80;;;;;;;;;;4965331;28;20406;-53
2021/03/29 08:58:22;;;;;;;6.40;1.02;;;;;;;;;;4964218;28;20041;-55
2021/03/29 09:00:48;;;;;;;1.83;0.50;;;;;;;;;;4962440;28;20046;-53
2021/03/29 09:03:22;;;;;;;4.00;0.68;;;;;;;;;;4964205;28;20431;-53
2021/03/29 09:05:48;;;;;;;3.20;1.02;;;;;;;;;;4977326;28;20065;-54
2021/03/29 09:08:14;;;;;;;6.60;0.85;;;;;;;;;;4965069;28;20047;-55
2021/03/29 09:10:43;;;;;;;1.13;0.40;;;;;;;;;;4963048;28;20192;-54
2021/03/29 09:13:10;;;;;;;3.25;0.52;;;;;;;;;;4963917;28;20042;-57
2021/03/29 09:15:48;;;;;;;35.50;2.78;;;;;;;;;;4977085;28;20030;-56
2021/03/29 09:18:15;;;;;;;0.93;0.30;;;;;;;;;;4964017;28;20043;-55
2021/03/29 09:20:46;;;;;;;4.28;0.45;;;;;;;;;;4975924;28;20033;-53
2021/03/29 09:23:12;;;;;;;1.58;0.50;;;;;;;;;;4957097;28;20098;-55
2021/03/29 09:25:41;;;;;;;16.05;0.63;;;;;;;;;;4961748;28;20046;-51
2021/03/29 09:28:41;;;;;;;1.33;0.40;;;;;;;;;;4964344;28;20042;-55
2021/03/29 09:31:09;;;;;;;0.30;0.30;;;;;;;;;;4964206;28;20046;-52
2021/03/29 09:33:35;;;;;;;0.70;0.30;;;;;;;;;;4964717;28;20047;-51
2021/03/29 09:36:08;;;;;;;8.48;0.95;;;;;;;;;;4963292;28;20046;-55
2021/03/29 09:38:36;;;;;;;0.55;0.30;;;;;;;;;;4961755;28;20035;-56
2021/03/29 09:41:02;;;;;;;0.47;0.30;;;;;;;;;;4963384;28;20534;-57
2021/03/29 09:43:28;;;;;;;0.82;0.30;;;;;;;;;;4979040;28;20137;-57
2021/03/29 09:46:04;;;;;;;1.52;0.30;;;;;;;;;;4964311;28;20058;-56
2021/03/29 09:48:30;;;;;;;2.78;0.50;;;;;;;;;;4963333;28;20066;-53
2021/03/29 09:50:57;;;;;;;1.08;0.52;;;;;;;;;;4964626;28;20419;-56
2021/03/29 09:53:24;;;;;;;4.70;0.60;;;;;;;;;;4963409;28;20428;-55
2021/03/29 09:55:54;;;;;;;2.13;0.60;;;;;;;;;;4966315;28;20058;-54
2021/03/29 09:58:25;;;;;;;2.03;0.70;;;;;;;;;;4965127;28;20039;-55
2021/03/29 10:00:52;;;;;;;3.90;0.73;;;;;;;;;;4964749;28;20735;-55
2021/03/29 10:03:19;;;;;;;3.42;0.50;;;;;;;;;;4962605;28;20074;-55
2021/03/29 10:05:46;;;;;;;2.83;0.90;;;;;;;;;;4952822;28;20046;-52
2021/03/29 10:08:14;;;;;;;5.13;0.50;;;;;;;;;;4962221;28;20049;-56
2021/03/29 10:10:39;;;;;;;1.80;0.65;;;;;;;;;;4960262;28;20053;-56
2021/03/29 10:13:06;;;;;;;0.85;0.40;;;;;;;;;;4964123;28;20042;-56
2021/03/29 10:15:33;;;;;;;1.70;0.60;;;;;;;;;;4960699;28;20074;-54
2021/03/29 10:18:12;;;;;;;3.10;0.60;;;;;;;;;;4962409;28;20043;-56
2021/03/29 10:20:39;;;;;;;1.17;0.40;;;;;;;;;;4963900;28;20046;-56
2021/03/29 10:23:25;;;;;;;4.63;0.70;;;;;;;;;;4962882;28;21837;-56
2021/03/29 10:26:09;;;;;;;2.42;0.75;;;;;;;;;;4961796;28;20724;-54
2021/03/29 10:28:35;;;;;;;9.90;1.38;;;;;;;;;;4962464;28;20105;-55
2021/03/29 10:31:01;;;;;;;3.00;0.75;;;;;;;;;;4961914;28;20046;-54
2021/03/29 10:33:26;;;;;;;4.07;0.90;;;;;;;;;;4962672;28;20188;-54
2021/03/29 10:35:52;;;;;;;4.28;1.02;;;;;;;;;;4965058;28;20042;-53
2021/03/29 10:38:18;;;;;;;3.60;0.70;;;;;;;;;;4963981;28;20141;-56
2021/03/29 10:40:44;;;;;;;3.70;0.80;;;;;;;;;;4963114;28;20045;-54
2021/03/29 10:43:10;;;;;;;1.98;0.60;;;;;;;;;;4963165;28;20051;-55
2021/03/29 10:45:36;;;;;;;6.00;0.98;;;;;;;;;;4961213;28;20034;-55
2021/03/29 10:48:01;;;;;;;3.42;0.85;;;;;;;;;;4963346;28;20047;-56
2021/03/29 10:50:27;;;;;;;2.47;0.70;;;;;;;;;;4963112;28;20042;-58
2021/03/29 10:52:53;;;;;;;1.80;0.57;;;;;;;;;;4963631;28;20035;-56
2021/03/29 10:55:20;;;;;;;2.08;0.80;;;;;;;;;;4962934;28;20043;-55
2021/03/29 10:57:46;;;;;;;2.83;0.85;;;;;;;;;;4962051;28;20039;-55
2021/03/29 11:00:12;;;;;;;2.78;0.63;;;;;;;;;;4962176;28;20967;-57
2021/03/29 11:02:38;;;;;;;3.97;0.85;;;;;;;;;;4961536;28;20125;-56
2021/03/29 11:05:07;;;;;;;4.47;0.60;;;;;;;;;;4962180;28;20061;-55
2021/03/29 11:07:33;;;;;;;2.85;0.80;;;;;;;;;;4961348;28;20042;-56
2021/03/29 11:09:59;;;;;;;1.40;0.50;;;;;;;;;;4961746;28;20046;-53
2021/03/29 11:12:26;;;;;;;2.60;0.80;;;;;;;;;;4962174;28;20030;-53
2021/03/29 11:14:52;;;;;;;1.25;0.60;;;;;;;;;;4961681;28;20077;-55
2021/03/29 11:17:21;;;;;;;4.45;0.75;;;;;;;;;;4961881;28;20066;-54
2021/03/29 11:20:04;;;;;;;2.08;0.65;;;;;;;;;;5016554;28;20127;-55
2021/03/29 11:22:30;;;;;;;2.35;0.70;;;;;;;;;;5016051;28;20950;-55
2021/03/29 11:24:56;;;;;;;3.88;0.90;;;;;;;;;;5016366;28;20048;-54
2021/03/29 11:27:22;;;;;;;2.00;0.70;;;;;;;;;;5016396;28;20037;-55
2021/03/29 11:29:48;;;;;;;2.22;0.77;;;;;;;;;;5017557;28;20045;-55
2021/03/29 11:32:13;;;;;;;1.45;0.60;;;;;;;;;;5018093;28;20115;-55
2021/03/29 11:34:39;;;;;;;1.77;0.60;;;;;;;;;;5021353;28;20120;-54
2021/03/29 11:37:05;;;;;;;2.60;0.70;;;;;;;;;;5022887;28;20032;-55
2021/03/29 11:39:31;;;;;;;5.18;0.90;;;;;;;;;;5021335;28;20476;-56
2021/03/29 11:41:57;;;;;;;5.07;0.80;;;;;;;;;;5021445;28;20048;-56
2021/03/29 11:44:22;;;;;;;2.55;0.65;;;;;;;;;;5020326;28;20072;-55
2021/03/29 11:46:48;;;;;;;5.22;0.90;;;;;;;;;;5021683;28;20033;-55
2021/03/29 11:49:14;;;;;;;1.77;0.57;;;;;;;;;;5022483;28;20051;-54
2021/03/29 11:51:40;;;;;;;5.00;0.77;;;;;;;;;;4980614;28;20039;-53
2021/03/29 11:54:06;;;;;;;3.00;0.95;;;;;;;;;;4964978;28;20053;-55
2021/03/29 11:56:35;;;;;;;2.38;0.70;;;;;;;;;;4966782;28;20054;-54
2021/03/29 11:59:01;;;;;;;4.53;1.05;;;;;;;;;;4965936;28;20261;-55
2021/03/29 12:04:49;;;;;;;2.22;0.80;;;;;;;;;;4965550;28;20078;-55
2021/03/29 12:07:34;;;;;;;3.28;0.77;;;;;;;;;;4964363;28;20121;-54
2021/03/29 12:12:36;;;;;;;2.05;0.60;;;;;;;;;;4964971;28;20038;-54
2021/03/29 12:15:02;;;;;;;3.42;0.75;;;;;;;;;;4967849;28;20524;-56
2021/03/29 12:17:28;;;;;;;2.35;0.80;;;;;;;;;;4965578;28;20041;-55
2021/03/29 12:19:54;;;;;;;3.28;1.02;;;;;;;;;;4965594;28;21692;-55
2021/03/29 12:22:23;;;;;;;2.78;1.10;;;;;;;;;;4985488;28;20046;-55
2021/03/29 12:24:50;;;;;;;3.78;0.63;;;;;;;;;;4966285;28;20164;-55
2021/03/29 12:27:17;;;;;;;2.78;0.90;;;;;;;;;;4966486;28;20056;-55
2021/03/29 12:29:44;;;;;;;4.13;0.63;;;;;;;;;;4966320;28;20058;-55
2021/03/29 12:32:18;;;;;;;6.00;0.70;;;;;;;;;;4968261;28;20093;-57
2021/03/29 12:34:48;;;;;;;11.88;1.13;;;;;;;;;;4966142;28;20047;-57
2021/03/29 12:37:18;;;;;;;12.48;1.13;;;;;;;;;;4996145;28;20074;-54
2021/03/29 12:39:49;;;;;;;3.03;0.60;;;;;;;;;;4964843;28;20101;-56
2021/03/29 12:42:17;;;;;;;1.70;0.55;;;;;;;;;;4964039;28;20073;-58
2021/03/29 12:44:44;;;;;;;1.63;0.80;;;;;;;;;;4961856;28;20093;-55
2021/03/29 12:47:15;;;;;;;2.28;0.73;;;;;;;;;;4965018;28;20038;-57
2021/03/29 12:49:41;;;;;;;2.55;0.80;;;;;;;;;;4964711;28;20051;-57
2021/03/29 12:52:07;;;;;;;2.75;0.88;;;;;;;;;;4963981;28;20109;-55
2021/03/29 12:54:35;;;;;;;2.83;0.80;;;;;;;;;;4965983;28;20153;-56
2021/03/29 12:57:01;;;;;;;21.67;2.88;;;;;;;;;;4963521;28;20050;-57
2021/03/29 12:59:28;;;;;;;7.43;1.45;;;;;;;;;;4964079;28;20035;-56
2021/03/29 13:01:55;;;;;;;1.45;0.45;;;;;;;;;;4995412;28;20042;-56
2021/03/29 13:04:28;;;;;;;5.10;1.17;;;;;;;;;;4965893;28;20504;-56
2021/03/29 13:07:19;;;;;;;4.03;0.80;;;;;;;;;;4966960;28;20369;-57
2021/03/29 13:12:18;;;;;;;2.83;0.93;;;;;;;;;;4962725;28;20039;-54
2021/03/29 13:14:58;;;;;;;2.75;0.80;;;;;;;;;;4965883;28;20544;-54
2021/03/29 13:17:25;;;;;;;3.05;0.73;;;;;;;;;;4963644;28;20541;-54
2021/03/29 13:19:51;;;;;;;5.00;0.98;;;;;;;;;;4964691;28;20431;-56
2021/03/29 13:22:17;;;;;;;3.63;0.82;;;;;;;;;;4964694;28;20038;-55
2021/03/29 13:24:43;;;;;;;2.60;0.65;;;;;;;;;;4965322;28;20643;-52
2021/03/29 13:27:09;;;;;;;6.55;0.80;;;;;;;;;;4964360;28;20113;-54
2021/03/29 13:29:35;;;;;;;3.58;0.63;;;;;;;;;;4964429;28;20049;-56
2021/03/29 13:32:01;;;;;;;2.45;0.63;;;;;;;;;;4963797;28;20051;-57
2021/03/29 13:34:27;;;;;;;3.13;0.63;;;;;;;;;;4966004;28;20062;-52
2021/03/29 13:36:53;;;;;;;3.92;0.75;;;;;;;;;;4964409;28;20595;-56
2021/03/29 13:39:18;;;;;;;9.88;1.35;;;;;;;;;;4965803;28;20042;-56
2021/03/29 13:41:44;;;;;;;1.85;0.60;;;;;;;;;;4965132;28;20105;-56
2021/03/29 13:44:11;;;;;;;1.83;0.60;;;;;;;;;;4966465;28;20138;-55
2021/03/29 13:46:37;;;;;;;1.08;0.35;;;;;;;;;;4966309;28;20042;-57
2021/03/29 13:49:04;;;;;;;3.55;1.00;;;;;;;;;;4966034;28;20109;-52
2021/03/29 13:51:29;;;;;;;2.25;0.73;;;;;;;;;;4963960;28;20042;-56
2021/03/29 13:54:09;;;;;;;2.83;0.82;;;;;;;;;;4964894;28;20047;-56
2021/03/29 13:56:37;;;;;;;1.60;0.65;;;;;;;;;;4963729;28;20066;-56
2021/03/29 13:59:03;;;;;;;1.70;0.60;;;;;;;;;;4964142;28;20444;-54
2021/03/29 14:01:32;;;;;;;1.83;0.60;;;;;;;;;;4963439;28;20057;-54
2021/03/29 14:03:59;;;;;;;4.10;1.13;;;;;;;;;;4964469;28;20042;-56
2021/03/29 14:06:28;;;;;;;2.65;0.80;;;;;;;;;;4964190;28;20038;-53
2021/03/29 14:08:54;;;;;;;2.53;0.70;;;;;;;;;;4965330;28;20058;-54
2021/03/29 14:11:20;;;;;;;2.05;0.65;;;;;;;;;;4961795;28;20043;-56
2021/03/29 14:13:46;;;;;;;5.18;0.90;;;;;;;;;;4963851;28;20038;-57
2021/03/29 14:16:12;;;;;;;2.00;0.70;;;;;;;;;;4964069;28;20101;-55
2021/03/29 14:18:38;;;;;;;5.07;0.70;;;;;;;;;;4963691;28;20039;-57
2021/03/29 14:21:11;;;;;;;1.50;0.60;;;;;;;;;;4963911;28;20121;-55
2021/03/29 14:23:37;;;;;;;5.03;0.93;;;;;;;;;;4966115;28;20129;-57
2021/03/29 14:26:03;;;;;;;3.15;0.63;;;;;;;;;;4972139;28;20138;-57
2021/03/29 14:28:29;;;;;;;4.43;0.50;;;;;;;;;;4969859;28;20038;-54
2021/03/29 14:30:55;;;;;;;4.72;0.82;;;;;;;;;;4965995;28;20035;-56
2021/03/29 14:33:22;;;;;;;3.03;0.80;;;;;;;;;;4965134;28;20437;-55
2021/03/29 14:36:04;;;;;;;3.15;0.80;;;;;;;;;;4966818;28;20089;-56
2021/03/29 14:45:50;;;;;;;4.13;0.70;;;;;;;;;;4964638;28;20043;-55
2021/03/29 14:48:16;;;;;;;9.20;1.42;;;;;;;;;;4965034;28;20061;-58
2021/03/29 14:50:42;;;;;;;1.75;0.63;;;;;;;;;;4963679;28;20627;-57
2021/03/29 14:53:08;;;;;;;1.73;0.60;;;;;;;;;;4965088;28;20041;-57
2021/03/29 14:55:33;;;;;;;1.77;0.60;;;;;;;;;;4966079;28;20089;-56
2021/03/29 14:57:59;;;;;;;2.90;0.50;;;;;;;;;;4967021;28;20129;-57
2021/03/29 15:00:26;;;;;;;5.63;0.80;;;;;;;;;;4965428;28;20042;-53
2021/03/29 15:08:21;;;;;;;2.65;0.80;;;;;;;;;;4959887;28;20038;-55
2021/03/29 15:10:47;;;;;;;2.72;0.63;;;;;;;;;;4962565;28;20108;-58
2021/03/29 15:13:13;;;;;;;5.38;0.98;;;;;;;;;;4965807;28;20054;-57